createdAt,value
2023-02-15T00:00:46.610Z,14.65
2023-02-15T00:01:46.746Z,14.73
2023-02-15T00:02:46.719Z,14.70
2023-02-15T00:03:46.713Z,14.68
2023-02-15T00:04:46.790Z,14.70
2023-02-15T00:05:46.857Z,14.67
2023-02-15T00:06:46.903Z,14.67
2023-02-15T00:07:46.935Z,14.73
2023-02-15T00:08:47.021Z,14.70
2023-02-15T00:09:47.016Z,14.74
2023-02-15T00:10:47.110Z,14.68
2023-02-15T00:11:47.110Z,14.68
2023-02-15T00:12:47.157Z,14.67
2023-02-15T00:13:47.216Z,14.67
2023-02-15T00:14:47.242Z,14.71
2023-02-15T00:15:47.307Z,14.75
2023-02-15T00:16:47.369Z,14.68
2023-02-15T00:17:47.370Z,14.71
2023-02-15T00:18:47.456Z,14.68
2023-02-15T00:19:47.497Z,14.67
2023-02-15T00:20:47.556Z,14.64
2023-02-15T00:21:47.603Z,14.70
2023-02-15T00:22:47.685Z,14.68
2023-02-15T00:23:47.759Z,14.70
2023-02-15T00:24:47.758Z,14.68
2023-02-15T00:25:47.848Z,14.71
2023-02-15T00:26:47.867Z,14.71
2023-02-15T00:27:47.964Z,14.65
2023-02-15T00:28:47.999Z,14.67
2023-02-15T00:29:48.048Z,14.67
2023-02-15T00:30:48.214Z,14.64
2023-02-15T00:31:48.187Z,14.65
2023-02-15T00:32:48.261Z,14.63
2023-02-15T00:33:48.299Z,14.64
2023-02-15T00:34:48.354Z,14.64
2023-02-15T00:35:48.407Z,14.65
2023-02-15T00:36:48.468Z,14.63
2023-02-15T00:37:48.507Z,14.68
2023-02-15T00:38:48.586Z,14.64
2023-02-15T00:39:48.629Z,14.63
2023-02-15T00:40:48.711Z,14.67
2023-02-15T00:41:48.754Z,14.64
2023-02-15T00:42:48.762Z,14.65
2023-02-15T00:43:48.807Z,14.68
2023-02-15T00:44:48.813Z,14.68
2023-02-15T00:45:48.905Z,14.71
2023-02-15T00:46:48.956Z,14.65
2023-02-15T00:47:49.016Z,14.64
2023-02-15T00:48:49.016Z,14.61
2023-02-15T00:49:49.062Z,14.64
2023-02-15T00:50:49.124Z,14.64
2023-02-15T00:51:49.144Z,14.65
2023-02-15T00:52:49.201Z,14.65
2023-02-15T00:53:49.245Z,14.64
2023-02-15T00:54:49.320Z,14.63
2023-02-15T00:55:49.350Z,14.61
2023-02-15T00:56:49.419Z,14.67
2023-02-15T00:57:49.438Z,14.62
2023-02-15T00:58:49.524Z,14.63
2023-02-15T00:59:49.544Z,14.62
2023-02-15T01:00:49.591Z,14.64
2023-02-15T01:01:49.713Z,14.61
2023-02-15T01:02:49.701Z,14.60
2023-02-15T01:03:49.745Z,14.61
2023-02-15T01:04:49.783Z,14.58
2023-02-15T01:05:49.854Z,14.64
2023-02-15T01:06:49.895Z,14.62
2023-02-15T01:07:49.930Z,14.62
2023-02-15T01:08:50.015Z,14.58
2023-02-15T01:09:50.073Z,14.61
2023-02-15T01:10:50.128Z,14.62
2023-02-15T01:11:50.169Z,14.61
2023-02-15T01:12:50.203Z,14.60
2023-02-15T01:13:50.253Z,14.61
2023-02-15T01:14:50.317Z,14.60
2023-02-15T01:15:50.364Z,14.61
2023-02-15T01:16:50.409Z,14.60
2023-02-15T01:17:50.434Z,14.60
2023-02-15T01:18:50.530Z,14.61
2023-02-15T01:19:50.534Z,14.62
2023-02-15T01:20:50.603Z,14.60
2023-02-15T01:21:50.643Z,14.55
2023-02-15T01:22:50.686Z,14.60
2023-02-15T01:23:50.769Z,14.60
2023-02-15T01:24:50.836Z,14.58
2023-02-15T01:25:50.892Z,14.57
2023-02-15T01:26:50.947Z,14.54
2023-02-15T01:27:50.986Z,14.58
2023-02-15T01:28:51.035Z,14.55
2023-02-15T01:29:51.098Z,14.51
2023-02-15T01:30:51.252Z,14.59
2023-02-15T01:31:51.315Z,14.55
2023-02-15T01:32:52.239Z,14.57
2023-02-15T01:33:51.306Z,14.59
2023-02-15T01:34:51.370Z,14.58
2023-02-15T01:35:51.419Z,14.57
2023-02-15T01:41:51.699Z,14.54
2023-02-15T01:42:51.752Z,14.61
2023-02-15T01:43:51.795Z,14.57
2023-02-15T01:44:51.838Z,14.60
2023-02-15T01:45:51.866Z,14.57
2023-02-15T01:46:51.895Z,14.55
2023-02-15T01:47:51.926Z,14.55
2023-02-15T01:48:51.988Z,14.55
2023-02-15T01:49:52.040Z,14.52
2023-02-15T01:50:52.080Z,14.48
2023-02-15T01:51:52.095Z,14.49
2023-02-15T01:52:52.112Z,14.58
2023-02-15T01:54:52.176Z,14.58
2023-02-15T01:55:52.266Z,14.57
2023-02-15T01:56:52.287Z,14.55
2023-02-15T01:58:52.365Z,14.54
2023-02-15T02:00:52.455Z,14.52
2023-02-15T02:01:52.551Z,14.55
2023-02-15T02:02:52.510Z,14.49
2023-02-15T02:08:52.749Z,14.52
2023-02-15T02:09:52.773Z,14.52
2023-02-15T02:10:52.771Z,14.55
2023-02-15T02:11:52.790Z,14.57
2023-02-15T02:12:52.839Z,14.58
2023-02-15T02:13:52.869Z,14.52
2023-02-15T02:14:52.919Z,14.54
2023-02-15T02:15:52.998Z,14.51
2023-02-15T02:16:52.949Z,14.54
2023-02-15T02:17:52.980Z,14.54
2023-02-15T02:18:52.999Z,14.49
2023-02-15T02:19:53.036Z,14.51
2023-02-15T02:20:53.090Z,14.54
2023-02-15T02:21:53.608Z,14.54
2023-02-15T02:22:53.520Z,14.51
2023-02-15T02:23:53.227Z,14.52
2023-02-15T02:24:53.287Z,14.48
2023-02-15T02:25:53.338Z,14.52
2023-02-15T02:26:53.394Z,14.52
2023-02-15T02:27:53.430Z,14.51
2023-02-15T02:28:53.462Z,14.49
2023-02-15T02:29:53.572Z,14.49
2023-02-15T02:30:53.757Z,14.52
2023-02-15T02:31:53.630Z,14.57
2023-02-15T02:32:53.645Z,14.52
2023-02-15T02:33:53.676Z,14.54
2023-02-15T02:34:53.759Z,14.52
2023-02-15T02:35:53.814Z,14.51
2023-02-15T02:36:53.895Z,14.54
2023-02-15T02:37:53.905Z,14.49
2023-02-15T02:38:53.996Z,14.49
2023-02-15T02:39:54.030Z,14.52
2023-02-15T02:40:54.072Z,14.52
2023-02-15T02:41:54.163Z,14.51
2023-02-15T02:42:54.231Z,14.51
2023-02-15T02:43:54.246Z,14.51
2023-02-15T02:44:54.267Z,14.51
2023-02-15T02:45:54.347Z,14.49
2023-02-15T02:46:54.394Z,14.49
2023-02-15T02:47:54.438Z,14.47
2023-02-15T02:48:54.521Z,14.45
2023-02-15T02:49:54.556Z,14.49
2023-02-15T02:50:54.584Z,14.47
2023-02-15T02:51:54.702Z,14.48
2023-02-15T02:52:54.705Z,14.52
2023-02-15T02:53:54.791Z,14.47
2023-02-15T02:54:54.819Z,14.49
2023-02-15T02:55:54.923Z,14.47
2023-02-15T02:56:54.905Z,14.51
2023-02-15T02:57:54.944Z,14.51
2023-02-15T02:58:54.981Z,14.51
2023-02-15T02:59:55.018Z,14.51
2023-02-15T03:00:55.051Z,14.48
2023-02-15T03:01:55.099Z,14.48
2023-02-15T03:02:55.153Z,14.51
2023-02-15T03:03:55.142Z,14.48
2023-02-15T03:04:55.177Z,14.49
2023-02-15T03:05:55.214Z,14.55
2023-02-15T03:06:55.218Z,14.45
2023-02-15T03:07:55.267Z,14.51
2023-02-15T03:08:55.272Z,14.49
2023-02-15T03:09:55.297Z,14.47
2023-02-15T03:10:55.324Z,14.47
2023-02-15T03:11:55.361Z,14.47
2023-02-15T03:12:55.392Z,14.47
2023-02-15T03:13:55.382Z,14.51
2023-02-15T03:14:55.424Z,14.43
2023-02-15T03:15:55.520Z,14.49
2023-02-15T03:16:55.477Z,14.51
2023-02-15T03:17:55.503Z,14.47
2023-02-15T03:18:55.543Z,14.45
2023-02-15T03:19:55.560Z,14.44
2023-02-15T03:20:55.577Z,14.45
2023-02-15T03:21:55.603Z,14.49
2023-02-15T03:22:55.626Z,14.45
2023-02-15T03:23:55.626Z,14.48
2023-02-15T03:24:55.681Z,14.45
2023-02-15T03:25:55.680Z,14.48
2023-02-15T03:26:55.689Z,14.47
2023-02-15T03:27:55.709Z,14.45
2023-02-15T03:28:55.734Z,14.48
2023-02-15T03:29:55.756Z,14.46
2023-02-15T03:30:55.800Z,14.42
2023-02-15T03:31:56.040Z,14.45
2023-02-15T03:32:55.826Z,14.45
2023-02-15T03:33:55.845Z,14.43
2023-02-15T03:34:55.860Z,14.46
2023-02-15T03:35:55.880Z,14.45
2023-02-15T03:36:55.897Z,14.42
2023-02-15T03:37:56.000Z,14.43
2023-02-15T03:38:56.006Z,14.49
2023-02-15T03:39:56.028Z,14.47
2023-02-15T03:40:56.016Z,14.45
2023-02-15T03:41:56.112Z,14.45
2023-02-15T03:42:56.103Z,14.49
2023-02-15T03:43:56.135Z,14.48
2023-02-15T03:44:56.183Z,14.49
2023-02-15T03:45:56.202Z,14.47
2023-02-15T03:46:56.285Z,14.49
2023-02-15T03:47:56.269Z,14.52
2023-02-15T03:48:56.292Z,14.45
2023-02-15T03:49:56.312Z,14.48
2023-02-15T03:50:56.349Z,14.54
2023-02-15T03:51:56.391Z,14.45
2023-02-15T03:52:56.476Z,14.40
2023-02-15T03:53:56.539Z,14.45
2023-02-15T03:54:56.558Z,14.47
2023-02-15T03:55:56.608Z,14.43
2023-02-15T03:56:56.701Z,14.44
2023-02-15T03:57:56.764Z,14.46
2023-02-15T03:58:56.807Z,14.43
2023-02-15T03:59:56.828Z,14.41
2023-02-15T04:00:56.912Z,14.37
2023-02-15T04:01:56.968Z,14.39
2023-02-15T04:02:57.007Z,14.39
2023-02-15T04:03:57.037Z,14.37
2023-02-15T04:04:57.069Z,14.33
2023-02-15T04:05:57.101Z,14.32
2023-02-15T04:06:57.154Z,14.38
2023-02-15T04:07:57.183Z,14.34
2023-02-15T04:08:57.257Z,14.34
2023-02-15T04:09:57.291Z,14.21
2023-02-15T04:10:57.329Z,14.32
2023-02-15T04:11:57.352Z,14.25
2023-02-15T04:12:57.408Z,14.22
2023-02-15T04:13:57.534Z,14.26
2023-02-15T04:14:57.476Z,14.24
2023-02-15T04:15:57.589Z,14.23
2023-02-15T04:16:57.564Z,14.14
2023-02-15T04:17:57.576Z,14.13
2023-02-15T04:18:57.627Z,14.17
2023-02-15T04:19:57.666Z,14.13
2023-02-15T04:20:57.724Z,14.10
2023-02-15T04:21:57.774Z,14.14
2023-02-15T04:22:57.809Z,14.16
2023-02-15T04:23:57.840Z,14.15
2023-02-15T04:24:57.849Z,14.15
2023-02-15T04:25:57.904Z,14.12
2023-02-15T04:26:57.959Z,14.06
2023-02-15T04:27:58.009Z,14.10
2023-02-15T04:28:58.017Z,14.06
2023-02-15T04:29:58.157Z,14.12
2023-02-15T04:30:58.109Z,14.05
2023-02-15T04:31:58.177Z,14.06
2023-02-15T04:32:58.174Z,14.04
2023-02-15T04:33:58.151Z,14.05
2023-02-15T04:34:58.196Z,14.09
2023-02-15T04:35:58.262Z,14.01
2023-02-15T04:36:58.252Z,14.06
2023-02-15T04:37:58.286Z,14.05
2023-02-15T04:38:58.294Z,13.99
2023-02-15T04:39:58.318Z,14.04
2023-02-15T04:40:58.342Z,13.98
2023-02-15T04:41:58.373Z,14.03
2023-02-15T04:42:58.379Z,13.98
2023-02-15T04:43:58.429Z,14.04
2023-02-15T04:44:58.428Z,14.03
2023-02-15T04:45:58.490Z,14.00
2023-02-15T04:46:58.501Z,14.01
2023-02-15T04:47:58.530Z,13.95
2023-02-15T04:48:58.574Z,13.98
2023-02-15T04:49:58.581Z,14.01
2023-02-15T04:50:58.630Z,14.00
2023-02-15T04:51:58.628Z,13.98
2023-02-15T04:52:58.692Z,13.98
2023-02-15T04:53:58.689Z,13.95
2023-02-15T04:54:58.707Z,14.00
2023-02-15T04:55:58.745Z,14.03
2023-02-15T04:56:58.757Z,14.01
2023-02-15T04:57:58.817Z,14.00
2023-02-15T04:58:58.833Z,14.00
2023-02-15T04:59:58.857Z,13.98
2023-02-15T05:00:58.907Z,14.02
2023-02-15T05:01:58.900Z,13.98
2023-02-15T05:02:58.966Z,13.98
2023-02-15T05:03:58.999Z,14.03
2023-02-15T05:04:58.992Z,14.01
2023-02-15T05:05:59.045Z,14.05
2023-02-15T05:06:59.066Z,14.05
2023-02-15T05:07:59.083Z,14.04
2023-02-15T05:08:59.121Z,14.02
2023-02-15T05:09:59.158Z,14.06
2023-02-15T05:10:59.189Z,13.98
2023-02-15T05:11:59.229Z,14.02
2023-02-15T05:12:59.237Z,14.02
2023-02-15T05:13:59.291Z,14.02
2023-02-15T05:14:59.276Z,14.05
2023-02-15T05:15:59.467Z,14.02
2023-02-15T05:16:59.359Z,14.05
2023-02-15T05:17:59.426Z,14.04
2023-02-15T05:19:59.471Z,14.05
2023-02-15T05:20:59.514Z,14.04
2023-02-15T05:21:59.545Z,14.06
2023-02-15T05:22:59.563Z,14.06
2023-02-15T05:23:59.620Z,14.06
2023-02-15T05:24:59.630Z,14.05
2023-02-15T05:26:00.003Z,14.04
2023-02-15T05:26:59.737Z,14.08
2023-02-15T05:27:59.744Z,14.05
2023-02-15T05:33:59.976Z,14.06
2023-02-15T05:34:59.997Z,14.06
2023-02-15T05:36:01.930Z,14.05
2023-02-15T05:37:00.070Z,14.05
2023-02-15T05:38:00.127Z,14.09
2023-02-15T05:39:00.144Z,14.09
2023-02-15T05:41:00.212Z,14.06
2023-02-15T05:42:00.259Z,14.01
2023-02-15T05:44:00.304Z,14.04
2023-02-15T05:45:00.332Z,14.06
2023-02-15T05:47:00.394Z,14.02
2023-02-15T05:48:00.439Z,14.02
2023-02-15T05:49:00.493Z,14.04
2023-02-15T05:50:00.530Z,14.04
2023-02-15T06:01:07.813Z,14.01
2023-02-15T06:02:00.920Z,14.04
2023-02-15T06:03:01.142Z,14.04
2023-02-15T06:04:00.878Z,13.98
2023-02-15T06:05:00.837Z,13.96
2023-02-15T06:06:01.150Z,14.04
2023-02-15T06:07:00.870Z,14.05
2023-02-15T06:09:00.847Z,14.01
2023-02-15T06:10:00.856Z,14.02
2023-02-15T06:11:00.870Z,14.04
2023-02-15T06:12:00.875Z,13.99
2023-02-15T06:13:00.856Z,14.04
2023-02-15T06:14:00.840Z,14.02
2023-02-15T06:15:00.861Z,14.05
2023-02-15T06:16:01.253Z,13.99
2023-02-15T06:17:00.843Z,14.02
2023-02-15T06:18:00.830Z,14.01
2023-02-15T06:19:00.824Z,13.99
2023-02-15T06:20:00.821Z,13.99
2023-02-15T06:21:00.840Z,13.99
2023-02-15T06:22:00.820Z,13.98
2023-02-15T06:23:00.819Z,13.98
2023-02-15T06:24:00.817Z,13.99
2023-02-15T06:25:00.793Z,14.01
2023-02-15T06:26:01.264Z,14.02
2023-02-15T06:27:00.752Z,13.98
2023-02-15T06:28:00.774Z,13.98
2023-02-15T06:29:00.787Z,13.98
2023-02-15T06:30:00.781Z,13.99
2023-02-15T06:31:00.861Z,13.98
2023-02-15T06:32:00.835Z,13.98
2023-02-15T06:33:00.747Z,13.95
2023-02-15T06:34:00.756Z,13.99
2023-02-15T06:35:00.742Z,14.01
2023-02-15T06:36:01.007Z,13.98
2023-02-15T06:37:00.728Z,13.99
2023-02-15T06:38:00.724Z,13.97
2023-02-15T06:39:00.753Z,14.02
2023-02-15T06:40:03.515Z,14.02
2023-02-15T06:41:00.734Z,14.01
2023-02-15T06:42:00.722Z,14.05
2023-02-15T06:43:00.735Z,13.95
2023-02-15T06:44:00.750Z,14.04
2023-02-15T06:45:00.739Z,13.95
2023-02-15T06:46:07.687Z,13.98
2023-02-15T06:47:00.719Z,13.92
2023-02-15T06:48:00.712Z,13.94
2023-02-15T06:49:00.734Z,13.98
2023-02-15T06:50:00.751Z,13.99
2023-02-15T06:51:00.705Z,13.94
2023-02-15T06:52:00.706Z,13.97
2023-02-15T06:53:00.709Z,13.97
2023-02-15T06:54:00.693Z,13.94
2023-02-15T06:55:00.662Z,13.97
2023-02-15T06:56:01.040Z,13.95
2023-02-15T06:57:00.679Z,13.95
2023-02-15T06:58:00.684Z,13.94
2023-02-15T06:59:00.656Z,13.99
2023-02-15T07:00:00.661Z,13.98
2023-02-15T07:01:00.624Z,13.95
2023-02-15T07:02:00.648Z,13.98
2023-02-15T07:03:00.628Z,13.98
2023-02-15T07:04:00.624Z,13.98
2023-02-15T07:05:00.688Z,13.95
2023-02-15T07:06:00.924Z,13.94
2023-02-15T07:07:00.597Z,13.94
2023-02-15T07:08:00.571Z,13.91
2023-02-15T07:09:00.612Z,13.98
2023-02-15T07:10:00.615Z,13.94
2023-02-15T07:11:00.538Z,13.96
2023-02-15T07:12:00.592Z,13.92
2023-02-15T07:13:00.606Z,13.95
2023-02-15T07:14:00.582Z,13.93
2023-02-15T07:15:00.554Z,13.98
2023-02-15T07:16:00.798Z,13.95
2023-02-15T07:17:00.540Z,13.95
2023-02-15T07:18:00.574Z,13.93
2023-02-15T07:19:00.581Z,13.93
2023-02-15T07:20:00.553Z,13.97
2023-02-15T07:21:00.527Z,13.89
2023-02-15T07:22:00.536Z,13.94
2023-02-15T07:23:00.536Z,13.89
2023-02-15T07:24:00.559Z,13.91
2023-02-15T07:25:00.556Z,13.88
2023-02-15T07:26:01.010Z,13.90
2023-02-15T07:27:00.560Z,13.93
2023-02-15T07:28:00.544Z,13.93
2023-02-15T07:29:00.548Z,13.93
2023-02-15T07:30:00.596Z,13.86
2023-02-15T07:31:00.578Z,13.90
2023-02-15T07:32:00.629Z,13.90
2023-02-15T07:33:01.120Z,13.87
2023-02-15T07:34:00.602Z,13.91
2023-02-15T07:35:00.632Z,13.93
2023-02-15T07:36:00.953Z,13.86
2023-02-15T07:37:00.665Z,13.93
2023-02-15T07:38:00.695Z,13.90
2023-02-15T07:39:00.701Z,13.90
2023-02-15T07:40:00.741Z,13.88
2023-02-15T07:41:00.769Z,13.82
2023-02-15T07:42:00.790Z,13.85
2023-02-15T07:43:00.815Z,13.82
2023-02-15T07:44:00.838Z,13.85
2023-02-15T07:45:00.856Z,13.84
2023-02-15T07:46:01.226Z,13.81
2023-02-15T07:47:00.854Z,13.78
2023-02-15T07:48:00.883Z,13.77
2023-02-15T07:49:00.905Z,13.76
2023-02-15T07:50:00.907Z,13.74
2023-02-15T07:51:00.923Z,13.84
2023-02-15T07:52:00.947Z,13.79
2023-02-15T07:53:00.949Z,13.79
2023-02-15T07:54:00.992Z,13.73
2023-02-15T07:55:00.979Z,13.76
2023-02-15T07:56:01.432Z,13.78
2023-02-15T07:57:01.038Z,13.75
2023-02-15T07:58:01.014Z,13.73
2023-02-15T07:59:01.049Z,13.71
2023-02-15T08:00:01.072Z,13.76
2023-02-15T08:01:01.105Z,13.76
2023-02-15T08:02:01.128Z,13.75
2023-02-15T08:03:01.310Z,13.72
2023-02-15T08:04:01.323Z,13.75
2023-02-15T08:05:01.232Z,13.76
2023-02-15T08:06:01.558Z,13.74
2023-02-15T08:07:01.277Z,13.74
2023-02-15T08:08:01.316Z,13.77
2023-02-15T08:09:01.328Z,13.73
2023-02-15T08:10:01.392Z,13.70
2023-02-15T08:11:01.401Z,13.70
2023-02-15T08:12:01.448Z,13.68
2023-02-15T08:13:01.500Z,13.68
2023-02-15T08:14:01.532Z,13.68
2023-02-15T08:15:01.570Z,13.70
2023-02-15T08:16:01.958Z,13.73
2023-02-15T08:17:01.608Z,13.69
2023-02-15T08:18:01.651Z,13.73
2023-02-15T08:19:01.698Z,13.74
2023-02-15T08:20:01.741Z,13.76
2023-02-15T08:21:01.792Z,13.72
2023-02-15T08:22:01.801Z,13.69
2023-02-15T08:23:01.888Z,13.73
2023-02-15T08:24:01.885Z,13.72
2023-02-15T08:25:01.918Z,13.73
2023-02-15T08:26:02.250Z,13.72
2023-02-15T08:27:02.000Z,13.72
2023-02-15T08:28:02.030Z,13.75
2023-02-15T08:29:02.052Z,13.79
2023-02-15T08:30:02.141Z,13.76
2023-02-15T08:31:02.458Z,13.76
2023-02-15T08:32:02.223Z,13.79
2023-02-15T08:33:02.141Z,13.81
2023-02-15T08:34:02.182Z,13.76
2023-02-15T08:35:02.223Z,13.75
2023-02-15T08:36:02.236Z,13.78
2023-02-15T08:37:02.268Z,13.74
2023-02-15T08:38:02.322Z,13.81
2023-02-15T08:39:02.351Z,13.80
2023-02-15T08:40:02.357Z,13.82
2023-02-15T08:41:02.730Z,13.78
2023-02-15T08:42:02.416Z,13.78
2023-02-15T08:43:02.424Z,13.75
2023-02-15T08:44:02.454Z,13.82
2023-02-15T08:45:02.474Z,13.81
2023-02-15T08:46:02.550Z,13.80
2023-02-15T08:47:02.522Z,13.80
2023-02-15T08:48:02.551Z,13.74
2023-02-15T08:49:02.571Z,13.77
2023-02-15T08:50:02.562Z,13.81
2023-02-15T08:51:02.959Z,13.80
2023-02-15T08:52:02.651Z,13.78
2023-02-15T08:53:02.662Z,13.82
2023-02-15T08:54:02.708Z,13.77
2023-02-15T08:55:02.697Z,13.77
2023-02-15T08:56:02.785Z,13.84
2023-02-15T08:57:02.789Z,13.83
2023-02-15T08:58:02.801Z,13.79
2023-02-15T08:59:03.307Z,13.74
2023-02-15T09:00:02.853Z,13.82
2023-02-15T09:01:03.186Z,13.77
2023-02-15T09:02:02.972Z,13.75
2023-02-15T09:03:02.881Z,13.77
2023-02-15T09:04:02.934Z,13.79
2023-02-15T09:05:03.950Z,13.76
2023-02-15T09:06:02.940Z,13.73
2023-02-15T09:07:02.994Z,13.75
2023-02-15T09:08:03.005Z,13.75
2023-02-15T09:09:03.049Z,13.73
2023-02-15T09:10:03.045Z,13.71
2023-02-15T09:11:03.555Z,13.75
2023-02-15T09:12:03.070Z,13.73
2023-02-15T09:13:03.180Z,13.74
2023-02-15T09:14:03.126Z,13.71
2023-02-15T09:15:03.202Z,13.74
2023-02-15T09:16:03.169Z,13.72
2023-02-15T09:17:03.195Z,13.71
2023-02-15T09:18:03.192Z,13.69
2023-02-15T09:19:03.245Z,13.72
2023-02-15T09:20:03.238Z,13.71
2023-02-15T09:21:03.574Z,13.68
2023-02-15T09:22:03.262Z,13.68
2023-02-15T09:23:03.257Z,13.67
2023-02-15T09:24:03.325Z,13.75
2023-02-15T09:25:03.287Z,13.70
2023-02-15T09:26:03.297Z,13.70
2023-02-15T09:27:03.343Z,13.63
2023-02-15T09:28:03.411Z,13.68
2023-02-15T09:29:03.371Z,13.67
2023-02-15T09:30:03.467Z,13.67
2023-02-15T09:31:03.804Z,13.70
2023-02-15T09:32:03.469Z,13.67
2023-02-15T09:33:03.394Z,13.63
2023-02-15T09:34:03.394Z,13.64
2023-02-15T09:35:03.420Z,13.63
2023-02-15T09:36:03.421Z,13.67
2023-02-15T09:37:03.411Z,13.63
2023-02-15T09:38:03.483Z,13.63
2023-02-15T09:39:03.477Z,13.64
2023-02-15T09:40:03.498Z,13.69
2023-02-15T09:41:03.850Z,13.66
2023-02-15T09:42:03.505Z,13.65
2023-02-15T09:43:03.526Z,13.67
2023-02-15T09:44:03.549Z,13.66
2023-02-15T09:45:03.565Z,13.72
2023-02-15T09:46:03.634Z,13.66
2023-02-15T09:47:03.560Z,13.65
2023-02-15T09:48:03.572Z,13.67
2023-02-15T09:49:03.569Z,13.73
2023-02-15T09:50:03.585Z,13.70
2023-02-15T09:51:04.018Z,13.70
2023-02-15T09:52:03.593Z,13.70
2023-02-15T09:53:03.609Z,13.71
2023-02-15T09:54:03.626Z,13.70
2023-02-15T09:55:03.630Z,13.73
2023-02-15T09:56:03.664Z,13.71
2023-02-15T09:57:03.662Z,13.69
2023-02-15T09:58:03.635Z,13.76
2023-02-15T09:59:03.654Z,13.72
2023-02-15T10:00:03.655Z,13.70
2023-02-15T10:01:04.037Z,13.75
2023-02-15T10:02:03.645Z,13.73
2023-02-15T10:03:05.906Z,13.76
2023-02-15T10:04:03.676Z,13.76
2023-02-15T10:05:03.691Z,13.76
2023-02-15T10:06:03.703Z,13.79
2023-02-15T10:07:03.694Z,13.77
2023-02-15T10:08:03.726Z,13.80
2023-02-15T10:09:03.717Z,13.77
2023-02-15T10:10:03.740Z,13.79
2023-02-15T10:11:04.002Z,13.76
2023-02-15T10:12:03.757Z,13.80
2023-02-15T10:13:03.736Z,13.75
2023-02-15T10:14:03.743Z,13.77
2023-02-15T10:15:03.792Z,13.79
2023-02-15T10:16:03.786Z,13.78
2023-02-15T10:17:03.830Z,13.78
2023-02-15T10:18:03.770Z,13.83
2023-02-15T10:19:03.786Z,13.83
2023-02-15T10:20:03.818Z,13.84
2023-02-15T10:21:04.295Z,13.84
2023-02-15T10:22:03.844Z,13.86
2023-02-15T10:23:03.885Z,13.84
2023-02-15T10:24:03.856Z,13.84
2023-02-15T10:25:03.870Z,13.89
2023-02-15T10:26:04.237Z,13.82
2023-02-15T10:27:03.835Z,13.84
2023-02-15T10:28:03.996Z,13.86
2023-02-15T10:29:03.862Z,13.86
2023-02-15T10:30:03.893Z,13.83
2023-02-15T10:31:04.266Z,13.86
2023-02-15T10:32:03.983Z,13.80
2023-02-15T10:33:03.930Z,13.86
2023-02-15T10:34:03.947Z,13.86
2023-02-15T10:35:03.930Z,13.86
2023-02-15T10:36:03.929Z,13.85
2023-02-15T10:37:03.980Z,13.85
2023-02-15T10:38:03.952Z,13.83
2023-02-15T10:39:03.974Z,13.88
2023-02-15T10:40:03.971Z,13.83
2023-02-15T10:41:04.368Z,13.85
2023-02-15T10:42:04.019Z,13.86
2023-02-15T10:43:04.015Z,13.88
2023-02-15T10:44:04.023Z,13.88
2023-02-15T10:45:04.032Z,13.85
2023-02-15T10:46:04.112Z,13.86
2023-02-15T10:47:04.063Z,13.84
2023-02-15T10:48:04.055Z,13.75
2023-02-15T10:49:04.055Z,13.85
2023-02-15T10:50:04.086Z,13.89
2023-02-15T10:51:04.432Z,13.85
2023-02-15T10:52:04.078Z,13.86
2023-02-15T10:53:04.090Z,13.81
2023-02-15T10:54:04.151Z,13.86
2023-02-15T10:55:04.152Z,13.88
2023-02-15T10:56:04.162Z,13.84
2023-02-15T10:57:04.116Z,13.86
2023-02-15T10:58:04.178Z,13.86
2023-02-15T10:59:04.164Z,13.79
2023-02-15T11:00:04.171Z,13.84
2023-02-15T11:01:04.363Z,13.84
2023-02-15T11:02:04.158Z,13.87
2023-02-15T11:03:04.156Z,13.85
2023-02-15T11:04:04.171Z,13.93
2023-02-15T11:05:04.196Z,13.86
2023-02-15T11:06:04.179Z,13.89
2023-02-15T11:07:04.182Z,13.84
2023-02-15T11:08:04.154Z,13.89
2023-02-15T11:09:04.151Z,13.88
2023-02-15T11:10:04.213Z,13.91
2023-02-15T11:11:04.483Z,13.92
2023-02-15T11:12:04.209Z,13.89
2023-02-15T11:13:04.179Z,13.88
2023-02-15T11:14:04.195Z,13.88
2023-02-15T11:15:04.208Z,13.87
2023-02-15T11:16:04.254Z,13.87
2023-02-15T11:17:04.254Z,13.91
2023-02-15T11:18:04.209Z,13.88
2023-02-15T11:19:04.220Z,13.88
2023-02-15T11:20:04.207Z,13.88
2023-02-15T11:21:04.560Z,13.82
2023-02-15T11:22:04.222Z,13.86
2023-02-15T11:23:04.221Z,13.88
2023-02-15T11:24:04.241Z,13.85
2023-02-15T11:25:04.247Z,13.88
2023-02-15T11:26:04.242Z,13.88
2023-02-15T11:27:04.267Z,13.81
2023-02-15T11:28:04.254Z,13.84
2023-02-15T11:29:04.251Z,13.84
2023-02-15T11:30:04.348Z,13.82
2023-02-15T11:31:04.748Z,13.76
2023-02-15T11:32:04.423Z,13.81
2023-02-15T11:33:06.858Z,13.79
2023-02-15T11:34:04.233Z,13.82
2023-02-15T11:35:04.219Z,13.82
2023-02-15T11:36:04.190Z,13.79
2023-02-15T11:37:04.204Z,13.78
2023-02-15T11:38:04.142Z,13.73
2023-02-15T11:39:04.130Z,13.79
2023-02-15T11:40:04.102Z,13.76
2023-02-15T11:41:04.463Z,13.77
2023-02-15T11:42:04.039Z,13.82
2023-02-15T11:43:04.030Z,13.75
2023-02-15T11:44:03.980Z,13.75
2023-02-15T11:45:03.981Z,13.77
2023-02-15T11:46:04.003Z,13.75
2023-02-15T11:47:03.944Z,13.74
2023-02-15T11:48:03.918Z,13.77
2023-02-15T11:49:03.897Z,13.72
2023-02-15T11:50:03.852Z,13.71
2023-02-15T11:51:04.233Z,13.71
2023-02-15T11:52:03.846Z,13.74
2023-02-15T11:53:03.786Z,13.70
2023-02-15T11:54:03.791Z,13.71
2023-02-15T11:55:03.752Z,13.75
2023-02-15T11:56:03.715Z,13.74
2023-02-15T11:57:03.710Z,13.68
2023-02-15T11:58:03.641Z,13.70
2023-02-15T11:59:03.641Z,13.72
2023-02-15T12:00:03.620Z,13.68
2023-02-15T12:01:04.040Z,13.68
2023-02-15T12:02:03.576Z,13.64
2023-02-15T12:03:03.617Z,13.68
2023-02-15T12:04:03.601Z,13.68
2023-02-15T12:05:03.509Z,13.70
2023-02-15T12:06:03.497Z,13.68
2023-02-15T12:07:03.481Z,13.67
2023-02-15T12:08:03.429Z,13.65
2023-02-15T12:09:03.437Z,13.71
2023-02-15T12:10:03.420Z,13.68
2023-02-15T12:11:03.700Z,13.68
2023-02-15T12:12:03.371Z,13.66
2023-02-15T12:13:03.346Z,13.68
2023-02-15T12:14:03.309Z,13.67
2023-02-15T12:15:03.274Z,13.67
2023-02-15T12:16:03.292Z,13.70
2023-02-15T12:17:03.263Z,13.71
2023-02-15T12:18:03.212Z,13.64
2023-02-15T12:19:03.213Z,13.64
2023-02-15T12:20:03.188Z,13.67
2023-02-15T12:21:03.445Z,13.66
2023-02-15T12:22:03.108Z,13.63
2023-02-15T12:23:03.126Z,13.68
2023-02-15T12:24:03.108Z,13.65
2023-02-15T12:25:03.114Z,13.66
2023-02-15T12:26:03.058Z,13.67
2023-02-15T12:27:03.026Z,13.65
2023-02-15T12:28:02.994Z,13.70
2023-02-15T12:29:02.968Z,13.65
2023-02-15T12:30:03.031Z,13.67
2023-02-15T12:31:03.305Z,13.65
2023-02-15T12:32:03.024Z,13.67
2023-02-15T12:33:02.869Z,13.65
2023-02-15T12:34:02.857Z,13.68
2023-02-15T12:35:02.853Z,13.65
2023-02-15T12:36:03.260Z,13.68
2023-02-15T12:37:02.835Z,13.67
2023-02-15T12:38:02.823Z,13.68
2023-02-15T12:39:02.818Z,13.68
2023-02-15T12:40:02.798Z,13.67
2023-02-15T12:41:03.161Z,13.67
2023-02-15T12:42:02.762Z,13.67
2023-02-15T12:43:08.940Z,13.65
2023-02-15T12:44:03.767Z,13.70
2023-02-15T12:45:02.708Z,13.65
2023-02-15T12:46:02.868Z,13.71
2023-02-15T12:47:02.676Z,13.69
2023-02-15T12:48:02.641Z,13.62
2023-02-15T12:49:02.630Z,13.68
2023-02-15T12:50:02.576Z,13.66
2023-02-15T12:51:02.591Z,13.66
2023-02-15T12:52:02.553Z,13.69
2023-02-15T12:53:02.578Z,13.66
2023-02-15T12:54:02.483Z,13.67
2023-02-15T12:55:02.501Z,13.66
2023-02-15T12:56:02.488Z,13.69
2023-02-15T12:57:02.494Z,13.66
2023-02-15T12:58:02.429Z,13.69
2023-02-15T12:59:02.434Z,13.69
2023-02-15T13:00:02.445Z,13.66
2023-02-15T13:01:02.748Z,13.72
2023-02-15T13:02:02.364Z,13.66
2023-02-15T13:03:02.353Z,13.71
2023-02-15T13:04:02.434Z,13.67
2023-02-15T13:05:02.398Z,13.72
2023-02-15T13:06:02.412Z,13.73
2023-02-15T13:07:02.397Z,13.72
2023-02-15T13:08:02.471Z,13.69
2023-02-15T13:09:02.464Z,13.69
2023-02-15T13:10:02.485Z,13.71
2023-02-15T13:11:02.835Z,13.69
2023-02-15T13:12:02.483Z,13.71
2023-02-15T13:13:02.517Z,13.71
2023-02-15T13:14:02.492Z,13.75
2023-02-15T13:15:02.534Z,13.67
2023-02-15T13:16:02.565Z,13.73
2023-02-15T13:17:02.517Z,13.73
2023-02-15T13:18:02.525Z,13.72
2023-02-15T13:19:02.513Z,13.76
2023-02-15T13:20:02.506Z,13.75
2023-02-15T13:21:02.878Z,13.72
2023-02-15T13:22:02.566Z,13.75
2023-02-15T13:23:02.555Z,13.76
2023-02-15T13:24:02.616Z,13.76
2023-02-15T13:25:02.562Z,13.69
2023-02-15T13:26:02.615Z,13.73